Penrose, Utah
Current Conditions -  °F | °C
As of 7:15 AM on Saturday 25 Oct 2014 (Local Time) from KBMC Reporting Station
Clear Clear  
Wind Chill: 48°   Ceiling: Unl
Heat Index: 48°   Visibility: 10mi
Dew Point: 33°   Wind: 0mph
Humidity: 57%   Direction: NA
Pressure: 30.07"   Gusts: NA
Location:  41.6836°N, 112.26°W
Report Text: KBMC 251315Z AUTO 00000KT 10SM CLR 09/01 A3007 RMK AO1 T00880007
Loading
Personal Weather Stations






























Interactive Weather Map New forecast layout! Learn more

10-Day Weather Forecast

Advertisements
Track Severe Weather on mobile